sensor_id;sensor_type;location;lat;lon;timestamp;P1;durP1;ratioP1;P2;durP2;ratioP2
68072;SDS011;54862;51.502;7.446;2023-05-24T00:01:47;16.58;;;4.28;;
68072;SDS011;54862;51.502;7.446;2023-05-24T00:04:13;10.57;;;2.72;;
68072;SDS011;54862;51.502;7.446;2023-05-24T00:06:40;12.20;;;2.95;;
68072;SDS011;54862;51.502;7.446;2023-05-24T00:09:08;9.27;;;2.70;;
68072;SDS011;54862;51.502;7.446;2023-05-24T00:11:37;12.68;;;2.80;;
68072;SDS011;54862;51.502;7.446;2023-05-24T00:14:05;12.75;;;2.90;;
68072;SDS011;54862;51.502;7.446;2023-05-24T00:16:34;13.15;;;3.10;;
68072;SDS011;54862;51.502;7.446;2023-05-24T00:19:02;15.95;;;3.90;;
68072;SDS011;54862;51.502;7.446;2023-05-24T00:21:31;9.07;;;2.70;;
68072;SDS011;54862;51.502;7.446;2023-05-24T00:23:59;13.30;;;2.85;;
68072;SDS011;54862;51.502;7.446;2023-05-24T00:26:25;14.05;;;2.85;;
68072;SDS011;54862;51.502;7.446;2023-05-24T00:28:54;10.48;;;3.17;;
68072;SDS011;54862;51.502;7.446;2023-05-24T00:31:22;11.18;;;2.92;;
68072;SDS011;54862;51.502;7.446;2023-05-24T00:33:48;11.02;;;2.72;;
68072;SDS011;54862;51.502;7.446;2023-05-24T00:36:16;9.20;;;2.72;;
68072;SDS011;54862;51.502;7.446;2023-05-24T00:38:42;13.00;;;3.08;;
68072;SDS011;54862;51.502;7.446;2023-05-24T00:41:11;9.43;;;2.53;;
68072;SDS011;54862;51.502;7.446;2023-05-24T00:43:37;7.22;;;2.25;;
68072;SDS011;54862;51.502;7.446;2023-05-24T00:46:15;15.75;;;2.75;;
68072;SDS011;54862;51.502;7.446;2023-05-24T00:48:41;9.95;;;2.80;;
68072;SDS011;54862;51.502;7.446;2023-05-24T00:51:07;13.10;;;2.50;;
68072;SDS011;54862;51.502;7.446;2023-05-24T00:53:34;8.65;;;2.65;;
68072;SDS011;54862;51.502;7.446;2023-05-24T00:56:03;10.20;;;2.47;;
68072;SDS011;54862;51.502;7.446;2023-05-24T00:58:30;12.98;;;2.80;;
68072;SDS011;54862;51.502;7.446;2023-05-24T01:00:59;8.82;;;2.67;;
68072;SDS011;54862;51.502;7.446;2023-05-24T01:03:26;11.50;;;2.97;;
68072;SDS011;54862;51.502;7.446;2023-05-24T01:05:55;12.98;;;3.53;;
68072;SDS011;54862;51.502;7.446;2023-05-24T01:11:04;10.32;;;2.58;;
68072;SDS011;54862;51.502;7.446;2023-05-24T01:13:43;11.38;;;2.72;;
68072;SDS011;54862;51.502;7.446;2023-05-24T01:16:16;10.70;;;3.00;;
68072;SDS011;54862;51.502;7.446;2023-05-24T01:19:10;8.57;;;2.65;;
68072;SDS011;54862;51.502;7.446;2023-05-24T01:29:41;14.00;;;3.22;;
68072;SDS011;54862;51.502;7.446;2023-05-24T01:32:11;11.55;;;3.03;;
68072;SDS011;54862;51.502;7.446;2023-05-24T01:34:37;11.52;;;3.30;;
68072;SDS011;54862;51.502;7.446;2023-05-24T01:37:04;10.95;;;2.90;;
68072;SDS011;54862;51.502;7.446;2023-05-24T01:39:30;13.25;;;2.67;;
68072;SDS011;54862;51.502;7.446;2023-05-24T01:44:40;10.00;;;3.00;;
68072;SDS011;54862;51.502;7.446;2023-05-24T01:49:37;8.30;;;2.90;;
68072;SDS011;54862;51.502;7.446;2023-05-24T01:52:10;12.45;;;3.10;;
68072;SDS011;54862;51.502;7.446;2023-05-24T01:54:37;7.73;;;2.73;;
68072;SDS011;54862;51.502;7.446;2023-05-24T01:57:07;11.05;;;3.13;;
68072;SDS011;54862;51.502;7.446;2023-05-24T01:59:35;11.43;;;2.60;;
68072;SDS011;54862;51.502;7.446;2023-05-24T02:02:01;10.93;;;3.20;;
68072;SDS011;54862;51.502;7.446;2023-05-24T02:04:27;14.45;;;3.35;;
68072;SDS011;54862;51.502;7.446;2023-05-24T02:06:53;13.93;;;3.47;;
68072;SDS011;54862;51.502;7.446;2023-05-24T02:09:19;9.48;;;3.25;;
68072;SDS011;54862;51.502;7.446;2023-05-24T02:11:45;10.68;;;3.33;;
68072;SDS011;54862;51.502;7.446;2023-05-24T02:14:11;14.80;;;3.17;;
68072;SDS011;54862;51.502;7.446;2023-05-24T02:16:37;6.82;;;2.33;;
68072;SDS011;54862;51.502;7.446;2023-05-24T02:19:09;16.55;;;3.25;;
68072;SDS011;54862;51.502;7.446;2023-05-24T02:21:35;8.43;;;2.47;;
68072;SDS011;54862;51.502;7.446;2023-05-24T02:24:01;14.90;;;3.10;;
68072;SDS011;54862;51.502;7.446;2023-05-24T02:26:27;13.43;;;2.92;;
68072;SDS011;54862;51.502;7.446;2023-05-24T02:28:53;11.85;;;2.85;;
68072;SDS011;54862;51.502;7.446;2023-05-24T02:31:19;8.27;;;2.80;;
68072;SDS011;54862;51.502;7.446;2023-05-24T02:33:45;13.10;;;3.20;;
68072;SDS011;54862;51.502;7.446;2023-05-24T02:36:11;9.75;;;2.85;;
68072;SDS011;54862;51.502;7.446;2023-05-24T02:38:37;11.70;;;2.70;;
68072;SDS011;54862;51.502;7.446;2023-05-24T02:41:06;15.00;;;2.67;;
68072;SDS011;54862;51.502;7.446;2023-05-24T02:43:35;10.73;;;3.55;;
68072;SDS011;54862;51.502;7.446;2023-05-24T02:46:01;8.73;;;2.95;;
68072;SDS011;54862;51.502;7.446;2023-05-24T02:48:28;6.18;;;2.70;;
68072;SDS011;54862;51.502;7.446;2023-05-24T02:50:54;12.32;;;2.97;;
68072;SDS011;54862;51.502;7.446;2023-05-24T02:53:19;14.77;;;2.90;;
68072;SDS011;54862;51.502;7.446;2023-05-24T02:55:46;13.60;;;2.92;;
68072;SDS011;54862;51.502;7.446;2023-05-24T02:58:12;8.65;;;2.78;;
68072;SDS011;54862;51.502;7.446;2023-05-24T03:00:38;15.50;;;3.05;;
68072;SDS011;54862;51.502;7.446;2023-05-24T03:03:04;13.60;;;3.33;;
68072;SDS011;54862;51.502;7.446;2023-05-24T03:05:30;14.13;;;2.88;;
68072;SDS011;54862;51.502;7.446;2023-05-24T03:07:56;14.30;;;2.90;;
68072;SDS011;54862;51.502;7.446;2023-05-24T03:10:22;9.50;;;2.92;;
68072;SDS011;54862;51.502;7.446;2023-05-24T03:12:48;10.43;;;3.10;;
68072;SDS011;54862;51.502;7.446;2023-05-24T03:15:14;8.48;;;3.25;;
68072;SDS011;54862;51.502;7.446;2023-05-24T03:17:40;14.77;;;3.33;;
68072;SDS011;54862;51.502;7.446;2023-05-24T03:20:06;12.30;;;3.28;;
68072;SDS011;54862;51.502;7.446;2023-05-24T03:22:32;10.07;;;3.58;;
68072;SDS011;54862;51.502;7.446;2023-05-24T03:24:58;9.15;;;3.05;;
68072;SDS011;54862;51.502;7.446;2023-05-24T03:27:26;14.77;;;3.30;;
68072;SDS011;54862;51.502;7.446;2023-05-24T03:29:57;17.60;;;3.20;;
68072;SDS011;54862;51.502;7.446;2023-05-24T03:32:25;10.73;;;3.05;;
68072;SDS011;54862;51.502;7.446;2023-05-24T03:34:51;8.52;;;3.20;;
68072;SDS011;54862;51.502;7.446;2023-05-24T03:37:20;10.73;;;2.90;;
68072;SDS011;54862;51.502;7.446;2023-05-24T03:39:46;11.98;;;3.60;;
68072;SDS011;54862;51.502;7.446;2023-05-24T03:42:12;15.00;;;3.13;;
68072;SDS011;54862;51.502;7.446;2023-05-24T03:44:40;17.00;;;3.85;;
68072;SDS011;54862;51.502;7.446;2023-05-24T03:47:07;10.60;;;3.40;;
68072;SDS011;54862;51.502;7.446;2023-05-24T03:49:36;14.93;;;3.47;;
68072;SDS011;54862;51.502;7.446;2023-05-24T03:52:02;10.45;;;3.28;;
68072;SDS011;54862;51.502;7.446;2023-05-24T03:54:28;12.90;;;3.28;;
68072;SDS011;54862;51.502;7.446;2023-05-24T03:56:54;15.57;;;3.63;;
68072;SDS011;54862;51.502;7.446;2023-05-24T03:59:20;13.77;;;3.20;;
68072;SDS011;54862;51.502;7.446;2023-05-24T04:01:50;15.77;;;3.88;;
68072;SDS011;54862;51.502;7.446;2023-05-24T04:04:16;10.07;;;3.45;;
68072;SDS011;54862;51.502;7.446;2023-05-24T04:06:42;15.48;;;3.72;;
68072;SDS011;54862;51.502;7.446;2023-05-24T04:09:08;13.18;;;3.80;;
68072;SDS011;54862;51.502;7.446;2023-05-24T04:11:34;12.07;;;3.60;;
68072;SDS011;54862;51.502;7.446;2023-05-24T04:14:00;14.63;;;3.83;;
68072;SDS011;54862;51.502;7.446;2023-05-24T04:16:26;12.77;;;3.92;;
68072;SDS011;54862;51.502;7.446;2023-05-24T04:18:53;19.02;;;4.93;;
68072;SDS011;54862;51.502;7.446;2023-05-24T04:21:19;11.30;;;3.63;;
68072;SDS011;54862;51.502;7.446;2023-05-24T04:23:45;12.75;;;4.18;;
68072;SDS011;54862;51.502;7.446;2023-05-24T04:26:14;19.88;;;4.63;;
68072;SDS011;54862;51.502;7.446;2023-05-24T04:28:40;17.45;;;4.10;;
68072;SDS011;54862;51.502;7.446;2023-05-24T04:31:06;13.50;;;4.60;;
68072;SDS011;54862;51.502;7.446;2023-05-24T04:33:33;18.20;;;3.78;;
68072;SDS011;54862;51.502;7.446;2023-05-24T04:36:03;15.13;;;4.05;;
68072;SDS011;54862;51.502;7.446;2023-05-24T04:38:34;15.63;;;3.90;;
68072;SDS011;54862;51.502;7.446;2023-05-24T04:41:02;16.50;;;4.10;;
68072;SDS011;54862;51.502;7.446;2023-05-24T04:43:32;18.02;;;4.50;;
68072;SDS011;54862;51.502;7.446;2023-05-24T04:46:01;12.75;;;3.90;;
68072;SDS011;54862;51.502;7.446;2023-05-24T04:48:27;17.40;;;4.15;;
68072;SDS011;54862;51.502;7.446;2023-05-24T04:50:56;14.30;;;3.97;;
68072;SDS011;54862;51.502;7.446;2023-05-24T04:53:22;13.93;;;4.22;;
68072;SDS011;54862;51.502;7.446;2023-05-24T04:55:48;18.63;;;4.80;;
68072;SDS011;54862;51.502;7.446;2023-05-24T04:58:15;16.92;;;4.45;;
68072;SDS011;54862;51.502;7.446;2023-05-24T05:00:41;18.50;;;4.57;;
68072;SDS011;54862;51.502;7.446;2023-05-24T05:03:07;17.45;;;5.13;;
68072;SDS011;54862;51.502;7.446;2023-05-24T05:05:33;21.83;;;4.90;;
68072;SDS011;54862;51.502;7.446;2023-05-24T05:07:59;21.35;;;4.60;;
68072;SDS011;54862;51.502;7.446;2023-05-24T05:10:25;17.23;;;4.93;;
68072;SDS011;54862;51.502;7.446;2023-05-24T05:12:54;15.38;;;5.18;;
68072;SDS011;54862;51.502;7.446;2023-05-24T05:15:21;22.67;;;5.03;;
68072;SDS011;54862;51.502;7.446;2023-05-24T05:17:50;18.38;;;4.82;;
68072;SDS011;54862;51.502;7.446;2023-05-24T05:20:16;20.85;;;4.68;;
68072;SDS011;54862;51.502;7.446;2023-05-24T05:22:45;13.85;;;4.22;;
68072;SDS011;54862;51.502;7.446;2023-05-24T05:25:14;16.90;;;4.30;;
68072;SDS011;54862;51.502;7.446;2023-05-24T05:27:40;16.38;;;4.88;;
68072;SDS011;54862;51.502;7.446;2023-05-24T05:30:06;13.85;;;4.20;;
68072;SDS011;54862;51.502;7.446;2023-05-24T05:32:32;17.92;;;4.63;;
68072;SDS011;54862;51.502;7.446;2023-05-24T05:34:58;18.38;;;4.85;;
68072;SDS011;54862;51.502;7.446;2023-05-24T05:37:24;21.23;;;4.55;;
68072;SDS011;54862;51.502;7.446;2023-05-24T05:39:50;14.10;;;4.50;;
68072;SDS011;54862;51.502;7.446;2023-05-24T05:42:16;18.40;;;4.50;;
68072;SDS011;54862;51.502;7.446;2023-05-24T05:44:42;18.75;;;4.30;;
68072;SDS011;54862;51.502;7.446;2023-05-24T05:47:08;15.75;;;3.90;;
68072;SDS011;54862;51.502;7.446;2023-05-24T05:49:34;13.77;;;4.40;;
68072;SDS011;54862;51.502;7.446;2023-05-24T05:52:04;20.85;;;4.50;;
68072;SDS011;54862;51.502;7.446;2023-05-24T05:54:30;17.67;;;4.70;;
68072;SDS011;54862;51.502;7.446;2023-05-24T05:56:58;16.48;;;4.85;;
68072;SDS011;54862;51.502;7.446;2023-05-24T05:59:27;14.27;;;4.70;;
68072;SDS011;54862;51.502;7.446;2023-05-24T06:01:53;19.52;;;4.65;;
68072;SDS011;54862;51.502;7.446;2023-05-24T06:04:19;19.67;;;5.13;;
68072;SDS011;54862;51.502;7.446;2023-05-24T06:06:45;17.15;;;4.53;;
68072;SDS011;54862;51.502;7.446;2023-05-24T06:09:16;15.27;;;4.78;;
68072;SDS011;54862;51.502;7.446;2023-05-24T06:11:42;16.83;;;4.10;;
68072;SDS011;54862;51.502;7.446;2023-05-24T06:14:11;18.55;;;4.57;;
68072;SDS011;54862;51.502;7.446;2023-05-24T06:16:42;18.15;;;4.75;;
68072;SDS011;54862;51.502;7.446;2023-05-24T06:19:14;23.08;;;4.70;;
68072;SDS011;54862;51.502;7.446;2023-05-24T06:21:40;18.85;;;4.72;;
68072;SDS011;54862;51.502;7.446;2023-05-24T06:24:11;21.55;;;4.57;;
68072;SDS011;54862;51.502;7.446;2023-05-24T06:26:38;21.63;;;5.13;;
68072;SDS011;54862;51.502;7.446;2023-05-24T06:29:04;15.65;;;4.10;;
68072;SDS011;54862;51.502;7.446;2023-05-24T06:31:31;17.13;;;4.43;;
68072;SDS011;54862;51.502;7.446;2023-05-24T06:33:57;19.48;;;5.18;;
68072;SDS011;54862;51.502;7.446;2023-05-24T06:36:25;21.17;;;5.40;;
68072;SDS011;54862;51.502;7.446;2023-05-24T06:38:51;17.25;;;4.07;;
68072;SDS011;54862;51.502;7.446;2023-05-24T06:41:17;19.15;;;4.82;;
68072;SDS011;54862;51.502;7.446;2023-05-24T06:43:43;21.65;;;4.53;;
68072;SDS011;54862;51.502;7.446;2023-05-24T06:46:10;21.50;;;4.38;;
68072;SDS011;54862;51.502;7.446;2023-05-24T06:48:38;18.08;;;3.95;;
68072;SDS011;54862;51.502;7.446;2023-05-24T06:51:04;21.85;;;4.68;;
68072;SDS011;54862;51.502;7.446;2023-05-24T06:53:30;17.20;;;3.85;;
68072;SDS011;54862;51.502;7.446;2023-05-24T06:55:56;19.20;;;4.05;;
68072;SDS011;54862;51.502;7.446;2023-05-24T06:58:22;19.70;;;4.57;;
68072;SDS011;54862;51.502;7.446;2023-05-24T07:00:50;20.33;;;4.80;;
68072;SDS011;54862;51.502;7.446;2023-05-24T07:03:17;15.52;;;4.10;;
68072;SDS011;54862;51.502;7.446;2023-05-24T07:05:45;17.60;;;4.65;;
68072;SDS011;54862;51.502;7.446;2023-05-24T07:08:11;21.50;;;5.13;;
68072;SDS011;54862;51.502;7.446;2023-05-24T07:10:37;18.77;;;4.40;;
68072;SDS011;54862;51.502;7.446;2023-05-24T07:13:03;19.48;;;4.78;;
68072;SDS011;54862;51.502;7.446;2023-05-24T07:15:29;16.38;;;4.10;;
68072;SDS011;54862;51.502;7.446;2023-05-24T07:17:55;21.33;;;4.95;;
68072;SDS011;54862;51.502;7.446;2023-05-24T07:20:26;23.30;;;4.32;;
68072;SDS011;54862;51.502;7.446;2023-05-24T07:22:57;19.20;;;4.20;;
68072;SDS011;54862;51.502;7.446;2023-05-24T07:25:25;18.35;;;4.40;;
68072;SDS011;54862;51.502;7.446;2023-05-24T07:27:54;14.13;;;3.83;;
68072;SDS011;54862;51.502;7.446;2023-05-24T07:30:22;17.60;;;3.95;;
68072;SDS011;54862;51.502;7.446;2023-05-24T07:32:48;23.95;;;4.55;;
68072;SDS011;54862;51.502;7.446;2023-05-24T07:35:17;15.73;;;3.78;;
68072;SDS011;54862;51.502;7.446;2023-05-24T07:37:43;15.45;;;3.97;;
68072;SDS011;54862;51.502;7.446;2023-05-24T07:40:12;19.38;;;4.25;;
68072;SDS011;54862;51.502;7.446;2023-05-24T07:42:39;21.50;;;4.05;;
68072;SDS011;54862;51.502;7.446;2023-05-24T07:45:05;19.40;;;4.72;;
68072;SDS011;54862;51.502;7.446;2023-05-24T07:47:32;18.23;;;4.28;;
68072;SDS011;54862;51.502;7.446;2023-05-24T07:49:58;20.42;;;4.63;;
68072;SDS011;54862;51.502;7.446;2023-05-24T07:52:24;24.75;;;4.50;;
68072;SDS011;54862;51.502;7.446;2023-05-24T07:54:53;22.70;;;3.92;;
68072;SDS011;54862;51.502;7.446;2023-05-24T07:57:19;18.05;;;4.07;;
68072;SDS011;54862;51.502;7.446;2023-05-24T07:59:46;14.57;;;3.97;;
68072;SDS011;54862;51.502;7.446;2023-05-24T08:02:12;18.25;;;4.93;;
68072;SDS011;54862;51.502;7.446;2023-05-24T08:04:39;14.45;;;3.92;;
68072;SDS011;54862;51.502;7.446;2023-05-24T08:07:05;17.48;;;3.90;;
68072;SDS011;54862;51.502;7.446;2023-05-24T08:09:31;20.92;;;3.80;;
68072;SDS011;54862;51.502;7.446;2023-05-24T08:12:00;21.92;;;4.10;;
68072;SDS011;54862;51.502;7.446;2023-05-24T08:14:28;15.43;;;3.58;;
68072;SDS011;54862;51.502;7.446;2023-05-24T08:16:54;15.57;;;3.97;;
68072;SDS011;54862;51.502;7.446;2023-05-24T08:19:20;17.95;;;5.53;;
68072;SDS011;54862;51.502;7.446;2023-05-24T08:21:49;16.70;;;4.18;;
68072;SDS011;54862;51.502;7.446;2023-05-24T08:24:15;18.45;;;4.13;;
68072;SDS011;54862;51.502;7.446;2023-05-24T08:26:41;16.23;;;3.80;;
68072;SDS011;54862;51.502;7.446;2023-05-24T08:29:11;15.45;;;3.90;;
68072;SDS011;54862;51.502;7.446;2023-05-24T08:31:37;19.10;;;4.03;;
68072;SDS011;54862;51.502;7.446;2023-05-24T08:34:03;13.63;;;4.55;;
68072;SDS011;54862;51.502;7.446;2023-05-24T08:36:29;16.23;;;4.50;;
68072;SDS011;54862;51.502;7.446;2023-05-24T08:38:56;14.52;;;3.30;;
68072;SDS011;54862;51.502;7.446;2023-05-24T08:41:23;13.00;;;3.83;;
68072;SDS011;54862;51.502;7.446;2023-05-24T08:43:51;19.42;;;4.38;;
68072;SDS011;54862;51.502;7.446;2023-05-24T08:46:18;11.80;;;3.63;;
68072;SDS011;54862;51.502;7.446;2023-05-24T08:48:45;14.30;;;3.58;;
68072;SDS011;54862;51.502;7.446;2023-05-24T08:51:14;14.38;;;3.58;;
68072;SDS011;54862;51.502;7.446;2023-05-24T08:53:40;20.17;;;4.10;;
68072;SDS011;54862;51.502;7.446;2023-05-24T08:56:13;13.85;;;3.83;;
68072;SDS011;54862;51.502;7.446;2023-05-24T08:58:41;16.25;;;3.50;;
68072;SDS011;54862;51.502;7.446;2023-05-24T09:01:07;14.57;;;3.70;;
68072;SDS011;54862;51.502;7.446;2023-05-24T09:03:35;18.05;;;5.28;;
68072;SDS011;54862;51.502;7.446;2023-05-24T09:06:01;15.07;;;3.83;;
68072;SDS011;54862;51.502;7.446;2023-05-24T09:08:28;17.02;;;3.67;;
68072;SDS011;54862;51.502;7.446;2023-05-24T09:10:54;20.58;;;3.80;;
68072;SDS011;54862;51.502;7.446;2023-05-24T09:13:21;14.50;;;3.78;;
68072;SDS011;54862;51.502;7.446;2023-05-24T09:15:48;15.02;;;4.03;;
68072;SDS011;54862;51.502;7.446;2023-05-24T09:18:14;16.00;;;3.90;;
68072;SDS011;54862;51.502;7.446;2023-05-24T09:20:40;13.43;;;3.83;;
68072;SDS011;54862;51.502;7.446;2023-05-24T09:23:06;16.85;;;3.75;;
68072;SDS011;54862;51.502;7.446;2023-05-24T09:25:33;12.15;;;3.53;;
68072;SDS011;54862;51.502;7.446;2023-05-24T09:28:00;14.23;;;3.83;;
68072;SDS011;54862;51.502;7.446;2023-05-24T09:30:33;14.38;;;4.28;;
68072;SDS011;54862;51.502;7.446;2023-05-24T09:32:59;15.63;;;3.75;;
68072;SDS011;54862;51.502;7.446;2023-05-24T09:35:26;13.20;;;3.85;;
68072;SDS011;54862;51.502;7.446;2023-05-24T09:37:52;12.73;;;3.25;;
68072;SDS011;54862;51.502;7.446;2023-05-24T09:40:21;15.10;;;3.67;;
68072;SDS011;54862;51.502;7.446;2023-05-24T09:42:48;17.85;;;3.60;;
68072;SDS011;54862;51.502;7.446;2023-05-24T09:45:19;12.23;;;3.40;;
68072;SDS011;54862;51.502;7.446;2023-05-24T09:47:45;18.08;;;3.45;;
68072;SDS011;54862;51.502;7.446;2023-05-24T09:50:12;13.77;;;3.42;;
68072;SDS011;54862;51.502;7.446;2023-05-24T09:52:38;15.95;;;3.65;;
68072;SDS011;54862;51.502;7.446;2023-05-24T09:55:14;16.25;;;3.95;;
68072;SDS011;54862;51.502;7.446;2023-05-24T09:57:44;13.40;;;4.07;;
68072;SDS011;54862;51.502;7.446;2023-05-24T10:00:14;16.05;;;3.72;;
68072;SDS011;54862;51.502;7.446;2023-05-24T10:02:46;15.73;;;3.70;;
68072;SDS011;54862;51.502;7.446;2023-05-24T10:05:24;14.63;;;4.22;;
68072;SDS011;54862;51.502;7.446;2023-05-24T10:07:50;14.05;;;3.50;;
68072;SDS011;54862;51.502;7.446;2023-05-24T10:10:17;14.52;;;3.53;;
68072;SDS011;54862;51.502;7.446;2023-05-24T10:12:43;13.38;;;3.40;;
68072;SDS011;54862;51.502;7.446;2023-05-24T10:15:11;13.25;;;3.45;;
68072;SDS011;54862;51.502;7.446;2023-05-24T10:17:39;16.20;;;3.42;;
68072;SDS011;54862;51.502;7.446;2023-05-24T10:20:11;17.13;;;3.60;;
68072;SDS011;54862;51.502;7.446;2023-05-24T10:22:39;12.95;;;3.50;;
68072;SDS011;54862;51.502;7.446;2023-05-24T10:25:06;17.20;;;4.28;;
68072;SDS011;54862;51.502;7.446;2023-05-24T10:27:37;17.08;;;4.10;;
68072;SDS011;54862;51.502;7.446;2023-05-24T10:30:07;12.40;;;3.40;;
68072;SDS011;54862;51.502;7.446;2023-05-24T10:32:37;17.10;;;3.50;;
68072;SDS011;54862;51.502;7.446;2023-05-24T10:35:04;13.18;;;3.90;;
68072;SDS011;54862;51.502;7.446;2023-05-24T10:37:31;14.50;;;3.83;;
68072;SDS011;54862;51.502;7.446;2023-05-24T10:39:58;12.82;;;3.40;;
68072;SDS011;54862;51.502;7.446;2023-05-24T10:42:25;13.60;;;3.80;;
68072;SDS011;54862;51.502;7.446;2023-05-24T10:44:51;13.75;;;3.50;;
68072;SDS011;54862;51.502;7.446;2023-05-24T10:47:19;15.50;;;3.53;;
68072;SDS011;54862;51.502;7.446;2023-05-24T10:49:49;14.63;;;3.85;;
68072;SDS011;54862;51.502;7.446;2023-05-24T10:55:04;15.65;;;3.58;;
68072;SDS011;54862;51.502;7.446;2023-05-24T10:57:34;14.82;;;4.45;;
68072;SDS011;54862;51.502;7.446;2023-05-24T11:03:04;16.52;;;3.70;;
68072;SDS011;54862;51.502;7.446;2023-05-24T11:05:47;15.80;;;3.90;;
68072;SDS011;54862;51.502;7.446;2023-05-24T11:08:14;14.13;;;4.00;;
68072;SDS011;54862;51.502;7.446;2023-05-24T11:10:40;16.13;;;3.67;;
68072;SDS011;54862;51.502;7.446;2023-05-24T11:13:06;14.55;;;3.78;;
68072;SDS011;54862;51.502;7.446;2023-05-24T11:15:33;14.30;;;3.85;;
68072;SDS011;54862;51.502;7.446;2023-05-24T11:20:37;15.75;;;3.85;;
68072;SDS011;54862;51.502;7.446;2023-05-24T11:23:06;13.02;;;3.35;;
68072;SDS011;54862;51.502;7.446;2023-05-24T11:25:33;14.35;;;5.15;;
68072;SDS011;54862;51.502;7.446;2023-05-24T11:28:01;16.27;;;3.63;;
68072;SDS011;54862;51.502;7.446;2023-05-24T11:30:28;14.80;;;4.05;;
68072;SDS011;54862;51.502;7.446;2023-05-24T11:32:56;18.70;;;4.95;;
68072;SDS011;54862;51.502;7.446;2023-05-24T11:35:25;15.88;;;3.58;;
68072;SDS011;54862;51.502;7.446;2023-05-24T11:37:53;11.75;;;3.65;;
68072;SDS011;54862;51.502;7.446;2023-05-24T11:40:20;15.25;;;3.60;;
68072;SDS011;54862;51.502;7.446;2023-05-24T11:42:46;13.57;;;3.80;;
68072;SDS011;54862;51.502;7.446;2023-05-24T11:45:12;14.48;;;3.92;;
68072;SDS011;54862;51.502;7.446;2023-05-24T11:47:39;17.55;;;4.25;;
68072;SDS011;54862;51.502;7.446;2023-05-24T11:50:05;14.10;;;4.28;;
68072;SDS011;54862;51.502;7.446;2023-05-24T11:52:39;14.23;;;3.80;;
68072;SDS011;54862;51.502;7.446;2023-05-24T11:55:06;18.27;;;4.50;;
68072;SDS011;54862;51.502;7.446;2023-05-24T11:57:37;11.50;;;4.13;;
68072;SDS011;54862;51.502;7.446;2023-05-24T12:00:09;19.00;;;4.38;;
68072;SDS011;54862;51.502;7.446;2023-05-24T12:02:40;15.23;;;3.85;;
68072;SDS011;54862;51.502;7.446;2023-05-24T12:05:07;16.17;;;4.32;;
68072;SDS011;54862;51.502;7.446;2023-05-24T12:07:35;11.65;;;4.15;;
68072;SDS011;54862;51.502;7.446;2023-05-24T12:10:02;19.00;;;4.95;;
68072;SDS011;54862;51.502;7.446;2023-05-24T12:12:30;12.50;;;3.70;;
68072;SDS011;54862;51.502;7.446;2023-05-24T12:15:00;17.48;;;3.97;;
68072;SDS011;54862;51.502;7.446;2023-05-24T12:17:26;13.32;;;3.80;;
68072;SDS011;54862;51.502;7.446;2023-05-24T12:19:52;18.13;;;4.30;;
68072;SDS011;54862;51.502;7.446;2023-05-24T12:22:18;16.23;;;3.83;;
68072;SDS011;54862;51.502;7.446;2023-05-24T12:24:47;15.23;;;4.53;;
68072;SDS011;54862;51.502;7.446;2023-05-24T12:27:16;15.35;;;3.63;;
68072;SDS011;54862;51.502;7.446;2023-05-24T12:29:42;13.82;;;4.35;;
68072;SDS011;54862;51.502;7.446;2023-05-24T12:32:11;11.23;;;3.83;;
68072;SDS011;54862;51.502;7.446;2023-05-24T12:34:39;14.52;;;4.65;;
68072;SDS011;54862;51.502;7.446;2023-05-24T12:37:08;15.85;;;4.50;;
68072;SDS011;54862;51.502;7.446;2023-05-24T12:39:34;13.68;;;4.07;;
68072;SDS011;54862;51.502;7.446;2023-05-24T12:42:01;18.08;;;3.88;;
68072;SDS011;54862;51.502;7.446;2023-05-24T12:44:31;18.90;;;4.53;;
68072;SDS011;54862;51.502;7.446;2023-05-24T12:46:57;12.25;;;3.67;;
68072;SDS011;54862;51.502;7.446;2023-05-24T12:49:24;18.70;;;4.07;;
68072;SDS011;54862;51.502;7.446;2023-05-24T12:51:51;17.90;;;4.57;;
68072;SDS011;54862;51.502;7.446;2023-05-24T12:54:18;16.02;;;3.78;;
68072;SDS011;54862;51.502;7.446;2023-05-24T12:56:44;16.42;;;3.97;;
68072;SDS011;54862;51.502;7.446;2023-05-24T12:59:10;17.90;;;4.78;;
68072;SDS011;54862;51.502;7.446;2023-05-24T13:01:36;20.83;;;5.22;;
68072;SDS011;54862;51.502;7.446;2023-05-24T13:04:02;15.00;;;4.07;;
68072;SDS011;54862;51.502;7.446;2023-05-24T13:06:28;17.80;;;5.60;;
68072;SDS011;54862;51.502;7.446;2023-05-24T13:08:54;18.95;;;5.07;;
68072;SDS011;54862;51.502;7.446;2023-05-24T13:11:20;12.23;;;3.95;;
68072;SDS011;54862;51.502;7.446;2023-05-24T13:13:49;13.35;;;3.97;;
68072;SDS011;54862;51.502;7.446;2023-05-24T13:16:18;18.98;;;4.90;;
68072;SDS011;54862;51.502;7.446;2023-05-24T13:18:46;18.70;;;4.10;;
68072;SDS011;54862;51.502;7.446;2023-05-24T13:21:12;15.25;;;4.63;;
68072;SDS011;54862;51.502;7.446;2023-05-24T13:23:38;15.35;;;4.43;;
68072;SDS011;54862;51.502;7.446;2023-05-24T13:26:04;19.50;;;4.82;;
68072;SDS011;54862;51.502;7.446;2023-05-24T13:28:33;17.75;;;5.03;;
68072;SDS011;54862;51.502;7.446;2023-05-24T13:30:59;15.70;;;4.75;;
68072;SDS011;54862;51.502;7.446;2023-05-24T13:33:29;16.70;;;4.85;;
68072;SDS011;54862;51.502;7.446;2023-05-24T13:35:55;16.38;;;4.93;;
68072;SDS011;54862;51.502;7.446;2023-05-24T13:38:22;24.95;;;5.70;;
68072;SDS011;54862;51.502;7.446;2023-05-24T13:40:48;20.73;;;5.10;;
68072;SDS011;54862;51.502;7.446;2023-05-24T13:43:14;18.65;;;5.97;;
68072;SDS011;54862;51.502;7.446;2023-05-24T13:45:40;17.05;;;4.97;;
68072;SDS011;54862;51.502;7.446;2023-05-24T13:48:06;17.83;;;6.35;;
68072;SDS011;54862;51.502;7.446;2023-05-24T13:50:33;15.35;;;5.22;;
68072;SDS011;54862;51.502;7.446;2023-05-24T13:53:02;16.88;;;5.00;;
68072;SDS011;54862;51.502;7.446;2023-05-24T13:55:29;18.08;;;5.78;;
68072;SDS011;54862;51.502;7.446;2023-05-24T13:57:56;23.63;;;5.10;;
68072;SDS011;54862;51.502;7.446;2023-05-24T14:00:23;16.08;;;5.22;;
68072;SDS011;54862;51.502;7.446;2023-05-24T14:02:49;14.82;;;5.05;;
68072;SDS011;54862;51.502;7.446;2023-05-24T14:05:16;17.92;;;5.57;;
68072;SDS011;54862;51.502;7.446;2023-05-24T14:07:42;19.38;;;6.43;;
68072;SDS011;54862;51.502;7.446;2023-05-24T14:10:08;25.58;;;5.90;;
68072;SDS011;54862;51.502;7.446;2023-05-24T14:12:34;15.02;;;4.95;;
68072;SDS011;54862;51.502;7.446;2023-05-24T14:15:00;18.38;;;5.50;;
68072;SDS011;54862;51.502;7.446;2023-05-24T14:17:29;20.33;;;5.57;;
68072;SDS011;54862;51.502;7.446;2023-05-24T14:19:55;17.10;;;5.38;;
68072;SDS011;54862;51.502;7.446;2023-05-24T14:22:23;17.30;;;4.97;;
68072;SDS011;54862;51.502;7.446;2023-05-24T14:24:50;18.35;;;5.25;;
68072;SDS011;54862;51.502;7.446;2023-05-24T14:27:16;20.88;;;5.63;;
68072;SDS011;54862;51.502;7.446;2023-05-24T14:29:42;17.08;;;4.80;;
68072;SDS011;54862;51.502;7.446;2023-05-24T14:32:08;14.35;;;5.45;;
68072;SDS011;54862;51.502;7.446;2023-05-24T14:34:35;17.45;;;5.95;;
68072;SDS011;54862;51.502;7.446;2023-05-24T14:37:01;17.13;;;5.22;;
68072;SDS011;54862;51.502;7.446;2023-05-24T14:39:27;19.63;;;5.20;;
68072;SDS011;54862;51.502;7.446;2023-05-24T14:41:53;16.15;;;4.60;;
68072;SDS011;54862;51.502;7.446;2023-05-24T14:44:20;15.75;;;4.47;;
68072;SDS011;54862;51.502;7.446;2023-05-24T14:46:51;14.93;;;5.30;;
68072;SDS011;54862;51.502;7.446;2023-05-24T14:49:16;16.13;;;4.65;;
68072;SDS011;54862;51.502;7.446;2023-05-24T14:51:44;15.73;;;4.95;;
68072;SDS011;54862;51.502;7.446;2023-05-24T14:54:10;15.85;;;4.90;;
68072;SDS011;54862;51.502;7.446;2023-05-24T14:56:36;19.10;;;5.03;;
68072;SDS011;54862;51.502;7.446;2023-05-24T14:59:02;17.75;;;4.80;;
68072;SDS011;54862;51.502;7.446;2023-05-24T15:01:28;14.35;;;4.47;;